Time;durP1;ratioP1;P1;durP2;ratioP2;P2;SDS_P1;SDS_P2;PMS_P1;PMS_P2;Temp;Humidity;BMP_temperature;BMP_pressure;BME280_temperature;BME280_humidity;BME280_pressure;Samples;Min_cycle;Max_cycle;Signal;HPM_P1;HPM_P2
2022/02/27 00:00:19;;;;;;;3.17;2.57;;;25.60;52.60;;;;;;5056948;28;20945;-82
2022/02/27 00:02:45;;;;;;;2.40;2.20;;;25.60;52.60;;;;;;5056740;28;20448;-84
2022/02/27 00:05:12;;;;;;;2.73;2.53;;;25.60;52.60;;;;;;5056738;28;20492;-86
2022/02/27 00:07:40;;;;;;;2.47;2.27;;;25.60;52.60;;;;;;5056661;28;20448;-86
2022/02/27 00:10:08;;;;;;;2.37;2.17;;;25.60;52.60;;;;;;5056718;28;20505;-83
2022/02/27 00:12:36;;;;;;;2.83;2.37;;;25.60;52.50;;;;;;5056594;28;20501;-82
2022/02/27 00:15:05;;;;;;;2.67;2.47;;;25.50;52.50;;;;;;5056735;28;20442;-85
2022/02/27 00:17:32;;;;;;;2.70;2.50;;;25.50;52.50;;;;;;5056427;28;20469;-86
2022/02/27 00:19:59;;;;;;;2.63;2.43;;;25.50;52.50;;;;;;5056537;28;20441;-82
2022/02/27 00:22:26;;;;;;;3.27;2.90;;;25.50;52.50;;;;;;5056366;28;20966;-81
2022/02/27 00:24:54;;;;;;;2.50;2.30;;;25.50;52.50;;;;;;5056108;28;20484;-82
2022/02/27 00:27:21;;;;;;;3.23;2.93;;;25.50;52.50;;;;;;5056314;28;20464;-82
2022/02/27 00:29:47;;;;;;;3.07;2.37;;;25.50;52.50;;;;;;5056359;28;20442;-82
2022/02/27 00:32:14;;;;;;;2.93;2.53;;;25.50;52.50;;;;;;5056186;28;20464;-86
2022/02/27 00:34:41;;;;;;;2.63;2.43;;;25.50;52.50;;;;;;5056163;28;20446;-81
2022/02/27 00:37:08;;;;;;;4.13;2.77;;;25.50;52.50;;;;;;5056069;28;20444;-82
2022/02/27 00:39:35;;;;;;;2.40;2.20;;;25.50;52.50;;;;;;5056219;28;20442;-82
2022/02/27 00:42:03;;;;;;;2.93;2.60;;;25.50;52.50;;;;;;5056186;28;20443;-86
2022/02/27 00:44:30;;;;;;;2.80;2.60;;;25.50;52.50;;;;;;5055932;28;20487;-82
2022/02/27 00:46:57;;;;;;;2.33;2.13;;;25.40;52.40;;;;;;5056031;28;20442;-82
2022/02/27 00:49:23;;;;;;;2.83;2.43;;;25.40;52.40;;;;;;5055915;28;20446;-82
2022/02/27 00:51:50;;;;;;;2.10;1.90;;;25.40;52.40;;;;;;5055812;28;20445;-82
2022/02/27 00:54:17;;;;;;;3.77;2.60;;;25.50;52.80;;;;;;5055238;28;20469;-82
2022/02/27 00:56:44;;;;;;;2.50;2.30;;;25.40;52.40;;;;;;5055666;28;20448;-81
2022/02/27 00:59:12;;;;;;;2.67;2.47;;;25.40;52.40;;;;;;5055741;28;20436;-82
2022/02/27 01:01:39;;;;;;;2.70;2.27;;;25.40;52.40;;;;;;5055698;28;20446;-82
2022/02/27 01:04:05;;;;;;;2.57;2.27;;;25.40;52.40;;;;;;5055625;28;20477;-82
2022/02/27 01:06:32;;;;;;;2.60;2.13;;;25.40;52.40;;;;;;5055653;28;20453;-87
2022/02/27 01:08:59;;;;;;;2.50;2.30;;;25.50;52.50;;;;;;5055675;28;20446;-81
2022/02/27 01:11:27;;;;;;;2.43;2.17;;;25.40;52.40;;;;;;5055444;28;20507;-86
2022/02/27 01:13:54;;;;;;;3.20;2.40;;;25.40;52.40;;;;;;5055552;28;20511;-82
2022/02/27 01:16:22;;;;;;;2.37;2.10;;;25.30;52.30;;;;;;5055383;28;20440;-82
2022/02/27 01:18:49;;;;;;;2.40;2.20;;;25.40;52.40;;;;;;5055471;28;20525;-82
2022/02/27 01:21:16;;;;;;;2.30;2.10;;;25.30;52.30;;;;;;5055421;28;20433;-82
2022/02/27 01:23:43;;;;;;;2.23;2.03;;;25.30;52.30;;;;;;5055232;28;20452;-82
2022/02/27 01:26:10;;;;;;;2.03;1.83;;;25.30;52.30;;;;;;5055207;28;20488;-86
2022/02/27 01:28:37;;;;;;;2.53;2.33;;;25.30;52.30;;;;;;5055147;28;20484;-82
2022/02/27 01:31:03;;;;;;;2.37;2.20;;;25.30;52.30;;;;;;5055255;28;20446;-86
2022/02/27 01:33:32;;;;;;;2.50;2.30;;;25.30;52.30;;;;;;5055046;28;20955;-82
2022/02/27 01:35:58;;;;;;;2.23;2.03;;;25.30;52.30;;;;;;5054740;28;20450;-81
2022/02/27 01:38:25;;;;;;;2.43;2.23;;;25.30;52.30;;;;;;5054976;28;20793;-82
2022/02/27 01:40:52;;;;;;;2.03;1.93;;;25.30;52.30;;;;;;5054962;28;20445;-82
2022/02/27 01:43:19;;;;;;;2.70;2.27;;;25.30;52.30;;;;;;5054917;28;20445;-82
2022/02/27 01:45:47;;;;;;;2.40;2.17;;;25.30;52.30;;;;;;5054931;28;20992;-82
2022/02/27 01:48:14;;;;;;;2.10;1.90;;;25.20;52.20;;;;;;5054827;28;20450;-87
2022/02/27 01:50:42;;;;;;;2.50;2.30;;;25.30;52.30;;;;;;5054813;28;20442;-82
2022/02/27 01:53:10;;;;;;;2.87;2.43;;;25.30;52.30;;;;;;5054643;28;20445;-82
2022/02/27 01:55:36;;;;;;;2.43;2.23;;;25.20;52.20;;;;;;5054503;28;20473;-86
2022/02/27 01:58:03;;;;;;;2.70;2.33;;;25.20;52.20;;;;;;5054698;28;20458;-82
2022/02/27 02:00:30;;;;;;;3.07;2.60;;;25.20;52.20;;;;;;5054734;28;20449;-82
2022/02/27 02:02:57;;;;;;;2.53;2.33;;;25.20;52.20;;;;;;5054454;28;20445;-82
2022/02/27 02:05:24;;;;;;;2.67;2.47;;;25.20;52.20;;;;;;5053528;28;20489;-82
2022/02/27 02:07:52;;;;;;;2.27;2.07;;;25.20;52.20;;;;;;5054481;28;20442;-86
2022/02/27 02:10:19;;;;;;;2.60;2.37;;;25.20;52.10;;;;;;5054510;28;20520;-87
2022/02/27 02:12:46;;;;;;;2.50;2.30;;;25.20;52.10;;;;;;5054274;28;20442;-81
2022/02/27 02:15:13;;;;;;;2.83;2.50;;;25.20;52.10;;;;;;5053796;28;20468;-81
2022/02/27 02:17:40;;;;;;;2.57;2.37;;;25.20;52.10;;;;;;5054340;28;20438;-81
2022/02/27 02:20:09;;;;;;;2.27;2.13;;;25.20;52.10;;;;;;5054250;28;20438;-82
2022/02/27 02:22:36;;;;;;;2.37;2.20;;;25.20;52.10;;;;;;5054106;28;20448;-87
2022/02/27 02:25:03;;;;;;;2.43;2.23;;;25.20;52.10;;;;;;5054018;28;20488;-82
2022/02/27 02:27:31;;;;;;;2.40;2.20;;;25.20;52.10;;;;;;5054011;28;20458;-81
2022/02/27 02:29:58;;;;;;;2.00;1.90;;;25.20;52.10;;;;;;5054090;28;20454;-82
2022/02/27 02:32:25;;;;;;;2.23;2.00;;;25.20;52.40;;;;;;5053879;28;20464;-82
2022/02/27 02:34:52;;;;;;;2.63;2.40;;;25.10;52.00;;;;;;5054016;28;20798;-86
2022/02/27 02:37:20;;;;;;;2.60;2.40;;;25.20;52.10;;;;;;5053993;28;20446;-87
2022/02/27 02:39:47;;;;;;;2.67;2.17;;;25.20;52.10;;;;;;5053955;28;20434;-82
2022/02/27 02:42:14;;;;;;;2.80;1.90;;;25.10;52.10;;;;;;5053743;28;20441;-82
2022/02/27 02:44:40;;;;;;;2.67;2.47;;;25.10;52.10;;;;;;5053603;28;20485;-82
2022/02/27 02:47:07;;;;;;;2.50;2.30;;;25.10;52.00;;;;;;5053819;28;20464;-82
2022/02/27 02:49:34;;;;;;;2.27;2.00;;;25.10;52.00;;;;;;5053677;28;20437;-82
2022/02/27 02:52:01;;;;;;;2.43;2.23;;;25.10;52.00;;;;;;5053629;28;20438;-81
2022/02/27 02:54:29;;;;;;;2.50;2.30;;;25.20;52.00;;;;;;5053324;28;20473;-86
2022/02/27 02:56:56;;;;;;;2.30;2.10;;;25.20;52.00;;;;;;5053498;28;20532;-82
2022/02/27 02:59:24;;;;;;;2.37;2.17;;;25.20;52.00;;;;;;5053554;28;20438;-81
2022/02/27 03:01:51;;;;;;;1.80;1.70;;;25.20;52.00;;;;;;5053524;28;20541;-81
2022/02/27 03:04:18;;;;;;;2.23;2.03;;;25.20;52.00;;;;;;5053381;28;20469;-87
2022/02/27 03:06:44;;;;;;;2.70;2.17;;;25.20;51.90;;;;;;5053265;28;20485;-82
2022/02/27 03:09:12;;;;;;;2.60;2.40;;;25.20;51.90;;;;;;5053340;28;20444;-82
2022/02/27 03:11:40;;;;;;;2.17;1.97;;;25.20;51.80;;;;;;5053369;28;20501;-82
2022/02/27 03:14:07;;;;;;;2.03;1.93;;;25.20;51.80;;;;;;5053204;28;20843;-82
2022/02/27 03:16:34;;;;;;;1.83;1.73;;;25.20;51.80;;;;;;5053109;28;20875;-87
2022/02/27 03:19:00;;;;;;;2.63;2.20;;;25.30;51.80;;;;;;5053180;28;20448;-82
2022/02/27 03:21:27;;;;;;;2.30;2.10;;;25.50;51.70;;;;;;5053119;28;20473;-82
2022/02/27 03:23:54;;;;;;;2.10;1.90;;;25.40;51.60;;;;;;5053335;28;20537;-87
2022/02/27 03:26:22;;;;;;;2.83;2.07;;;25.40;51.60;;;;;;5053148;28;20496;-86
2022/02/27 03:28:51;;;;;;;2.10;1.90;;;25.40;51.60;;;;;;5053183;28;20437;-87
2022/02/27 03:31:18;;;;;;;2.43;2.23;;;25.40;51.50;;;;;;5053029;28;20853;-87
2022/02/27 03:33:45;;;;;;;1.70;1.60;;;25.40;51.50;;;;;;5053071;28;20443;-86
2022/02/27 03:36:12;;;;;;;2.63;2.10;;;25.40;51.40;;;;;;5053007;28;20438;-82
2022/02/27 03:38:39;;;;;;;2.27;2.07;;;25.40;51.40;;;;;;5053095;28;20878;-81
2022/02/27 03:41:05;;;;;;;4.13;2.83;;;25.40;51.40;;;;;;5052859;28;20438;-86
2022/02/27 03:43:32;;;;;;;2.00;1.90;;;25.40;51.30;;;;;;5052987;28;20442;-86
2022/02/27 03:46:01;;;;;;;1.80;1.70;;;25.40;51.30;;;;;;5052877;28;20489;-82
2022/02/27 03:48:28;;;;;;;2.50;2.30;;;25.50;51.30;;;;;;5052859;28;20446;-82
2022/02/27 03:50:54;;;;;;;2.60;2.40;;;25.50;51.30;;;;;;5052898;28;20442;-82
2022/02/27 03:53:22;;;;;;;2.50;2.03;;;25.40;51.20;;;;;;5052760;28;20453;-81
2022/02/27 03:55:49;;;;;;;2.00;1.80;;;25.50;51.20;;;;;;5052769;28;20449;-82
2022/02/27 03:58:16;;;;;;;2.33;2.07;;;25.50;51.20;;;;;;5052752;28;20461;-81
2022/02/27 04:00:42;;;;;;;2.20;2.00;;;25.50;51.20;;;;;;5052780;28;20442;-83
2022/02/27 04:03:10;;;;;;;2.00;1.80;;;25.50;51.10;;;;;;5052904;28;20442;-87
2022/02/27 04:05:38;;;;;;;1.87;1.77;;;25.50;51.10;;;;;;5052722;28;20508;-86
2022/02/27 04:08:05;;;;;;;2.17;2.07;;;25.50;51.10;;;;;;5052685;28;20793;-82
2022/02/27 04:10:32;;;;;;;3.40;2.37;;;25.50;51.10;;;;;;5052752;28;20448;-81
2022/02/27 04:12:59;;;;;;;2.30;1.97;;;25.50;51.20;;;;;;5052581;28;20445;-82
2022/02/27 04:15:26;;;;;;;2.23;1.97;;;25.50;51.10;;;;;;5052581;28;20905;-87
2022/02/27 04:17:53;;;;;;;2.27;2.10;;;25.40;51.00;;;;;;5052674;28;20440;-82
2022/02/27 04:20:22;;;;;;;2.57;2.27;;;25.50;51.10;;;;;;5052701;28;20444;-83
2022/02/27 04:22:48;;;;;;;2.20;2.00;;;25.50;51.10;;;;;;5052514;28;21052;-82
2022/02/27 04:25:15;;;;;;;1.93;1.83;;;25.40;51.00;;;;;;5052512;28;20832;-83
2022/02/27 04:27:42;;;;;;;2.57;1.90;;;25.40;51.00;;;;;;5052486;28;20461;-82
2022/02/27 04:30:10;;;;;;;2.60;2.03;;;25.40;51.00;;;;;;5056063;28;20797;-82
2022/02/27 04:32:37;;;;;;;2.30;2.10;;;25.40;51.00;;;;;;5056214;28;20797;-87
2022/02/27 04:35:04;;;;;;;2.50;2.03;;;25.40;51.10;;;;;;5056188;28;20822;-82
2022/02/27 04:37:32;;;;;;;2.30;2.20;;;25.40;51.00;;;;;;5056269;28;20441;-82
2022/02/27 04:39:59;;;;;;;2.90;2.10;;;25.40;51.00;;;;;;5056322;28;20802;-82
2022/02/27 04:42:25;;;;;;;2.33;2.10;;;25.40;51.00;;;;;;5056150;28;20438;-82
2022/02/27 04:44:53;;;;;;;2.00;1.83;;;25.50;51.00;;;;;;5056078;28;20446;-86
2022/02/27 04:47:20;;;;;;;1.80;1.63;;;25.40;50.90;;;;;;5056002;28;20468;-86
2022/02/27 04:49:48;;;;;;;2.73;1.90;;;25.50;50.90;;;;;;5056026;28;20437;-86
2022/02/27 04:52:15;;;;;;;2.40;2.20;;;25.50;50.90;;;;;;5055884;28;20446;-82
2022/02/27 04:54:43;;;;;;;2.30;2.10;;;25.50;50.80;;;;;;5055489;28;20473;-81
2022/02/27 04:57:10;;;;;;;2.47;2.27;;;25.50;50.80;;;;;;5055849;28;20457;-86
2022/02/27 04:59:37;;;;;;;1.90;1.60;;;25.50;51.40;;;;;;5055770;28;20434;-85
2022/02/27 05:02:04;;;;;;;2.00;1.80;;;25.50;50.80;;;;;;5055682;28;20438;-81
2022/02/27 05:04:31;;;;;;;3.13;2.30;;;25.50;50.70;;;;;;5055554;28;20436;-84
2022/02/27 05:06:58;;;;;;;2.37;2.17;;;25.50;50.70;;;;;;5055633;28;20491;-82
2022/02/27 05:09:24;;;;;;;3.00;1.93;;;25.50;50.70;;;;;;5055627;28;20441;-82
2022/02/27 05:11:52;;;;;;;2.33;1.97;;;25.50;50.60;;;;;;5055463;28;20472;-82
2022/02/27 05:14:19;;;;;;;1.83;1.73;;;25.50;50.50;;;;;;5055338;28;20450;-82
2022/02/27 05:16:46;;;;;;;2.50;2.30;;;25.60;50.60;;;;;;5055479;28;20442;-84
2022/02/27 05:19:13;;;;;;;2.10;1.90;;;25.60;50.50;;;;;;5055348;28;20438;-82
2022/02/27 05:21:41;;;;;;;2.40;2.13;;;25.60;50.50;;;;;;5055414;28;20441;-82
2022/02/27 05:24:08;;;;;;;2.00;1.90;;;25.60;50.50;;;;;;5057779;28;20442;-80
2022/02/27 05:26:35;;;;;;;2.20;2.10;;;25.60;50.50;;;;;;5062346;28;20592;-83
2022/02/27 05:29:04;;;;;;;1.93;1.73;;;25.70;50.40;;;;;;5057536;28;20434;-82
2022/02/27 05:31:31;;;;;;;2.30;2.10;;;25.60;50.40;;;;;;5055253;28;20441;-82
2022/02/27 05:33:58;;;;;;;2.30;2.10;;;25.60;50.40;;;;;;5055183;28;20445;-82
2022/02/27 05:36:25;;;;;;;2.43;2.23;;;25.70;50.40;;;;;;5055097;28;20928;-82
2022/02/27 05:38:51;;;;;;;2.23;1.90;;;25.70;50.40;;;;;;5055028;28;20452;-82
2022/02/27 05:41:18;;;;;;;2.37;1.87;;;25.70;50.40;;;;;;5054866;28;20438;-82
2022/02/27 05:43:45;;;;;;;2.87;2.30;;;25.70;50.30;;;;;;5055002;28;20945;-84
2022/02/27 05:46:13;;;;;;;2.30;2.10;;;25.70;50.30;;;;;;5054896;28;20491;-86
2022/02/27 05:48:40;;;;;;;1.87;1.67;;;25.70;50.40;;;;;;5055002;28;20937;-82
2022/02/27 05:51:07;;;;;;;2.17;2.07;;;25.70;50.30;;;;;;5055044;28;20946;-86
2022/02/27 05:53:34;;;;;;;2.10;1.90;;;25.70;50.30;;;;;;5055128;28;20440;-86
2022/02/27 05:56:03;;;;;;;2.83;2.50;;;25.70;50.30;;;;;;5054960;28;20438;-87
2022/02/27 05:58:31;;;;;;;2.10;1.97;;;25.70;50.30;;;;;;5054989;28;20458;-87
2022/02/27 06:00:58;;;;;;;2.27;1.90;;;25.70;50.20;;;;;;5054783;28;20504;-87
2022/02/27 06:03:27;;;;;;;2.17;1.83;;;25.80;50.30;;;;;;5054851;28;20925;-87
2022/02/27 06:05:54;;;;;;;2.10;1.93;;;25.80;50.30;;;;;;5058780;28;20808;-82
2022/02/27 06:08:21;;;;;;;2.17;1.83;;;25.80;50.30;;;;;;5062250;28;20442;-83
2022/02/27 06:10:48;;;;;;;2.30;2.10;;;25.80;50.20;;;;;;5060060;28;20438;-81
2022/02/27 06:13:14;;;;;;;2.33;1.80;;;25.80;50.20;;;;;;5058427;28;20441;-82
2022/02/27 06:15:42;;;;;;;1.83;1.60;;;25.80;50.20;;;;;;5054718;28;20442;-82
2022/02/27 06:18:09;;;;;;;1.80;1.70;;;25.80;50.20;;;;;;5054814;28;20848;-82
2022/02/27 06:20:37;;;;;;;2.00;1.80;;;25.80;50.10;;;;;;5054591;28;20429;-82
2022/02/27 06:23:03;;;;;;;1.83;1.50;;;25.80;50.20;;;;;;5054658;28;20925;-83
2022/02/27 06:25:30;;;;;;;2.30;1.70;;;25.80;50.10;;;;;;5054449;28;20444;-82
2022/02/27 06:27:57;;;;;;;1.80;1.70;;;25.80;50.10;;;;;;5054684;28;20987;-84
2022/02/27 06:30:26;;;;;;;2.00;1.90;;;25.80;50.10;;;;;;5054334;28;20797;-82
2022/02/27 06:32:53;;;;;;;2.10;1.83;;;25.80;50.10;;;;;;5054438;28;20925;-86
2022/02/27 06:35:23;;;;;;;1.97;1.87;;;25.80;50.20;;;;;;5054389;28;20477;-82
2022/02/27 06:37:52;;;;;;;2.03;1.80;;;25.80;50.00;;;;;;5054266;28;20446;-85
2022/02/27 06:40:20;;;;;;;1.83;1.73;;;25.80;50.10;;;;;;5054527;28;20499;-83
2022/02/27 06:42:48;;;;;;;1.93;1.57;;;25.80;50.10;;;;;;5054049;28;20446;-83
2022/02/27 06:45:16;;;;;;;2.00;1.60;;;25.80;50.00;;;;;;5053449;28;20441;-82
2022/02/27 06:47:43;;;;;;;1.63;1.53;;;25.80;50.00;;;;;;5053976;28;20489;-82
2022/02/27 06:50:11;;;;;;;2.40;1.77;;;25.80;50.00;;;;;;5054179;28;20540;-87
2022/02/27 06:52:38;;;;;;;2.23;1.57;;;25.80;50.00;;;;;;5053579;28;20438;-82
2022/02/27 06:55:07;;;;;;;2.20;2.00;;;25.80;50.00;;;;;;5054129;28;20466;-83
2022/02/27 06:57:34;;;;;;;2.50;2.30;;;25.80;50.00;;;;;;5053871;28;20466;-83
2022/02/27 07:00:01;;;;;;;2.13;1.93;;;25.80;50.00;;;;;;5053864;28;20446;-83
2022/02/27 07:02:27;;;;;;;1.97;1.87;;;25.80;49.90;;;;;;5053616;28;20433;-83
2022/02/27 07:04:54;;;;;;;2.23;1.93;;;25.80;49.90;;;;;;5053668;28;20442;-83
2022/02/27 07:07:21;;;;;;;2.27;1.73;;;25.90;50.00;;;;;;5053675;28;20581;-83
2022/02/27 07:09:48;;;;;;;2.30;1.70;;;25.90;49.80;;;;;;5053618;28;20445;-83
2022/02/27 07:12:16;;;;;;;1.70;1.60;;;25.90;49.90;;;;;;5053403;28;20513;-87
2022/02/27 07:14:43;;;;;;;2.07;1.87;;;25.90;49.90;;;;;;5053510;28;20448;-83
2022/02/27 07:17:10;;;;;;;2.03;1.77;;;25.90;49.80;;;;;;5049880;28;20474;-85
2022/02/27 07:19:37;;;;;;;2.40;1.87;;;25.90;49.80;;;;;;5053578;28;20441;-84
2022/02/27 07:22:05;;;;;;;1.97;1.87;;;25.90;49.80;;;;;;5053383;28;20955;-83
2022/02/27 07:24:32;;;;;;;2.17;1.97;;;25.90;49.80;;;;;;5050091;28;20462;-86
2022/02/27 07:26:59;;;;;;;2.23;1.90;;;25.90;49.80;;;;;;5033546;28;20849;-82
2022/02/27 07:29:27;;;;;;;1.90;1.80;;;25.90;49.80;;;;;;5033649;28;20468;-88
2022/02/27 07:31:53;;;;;;;2.17;1.97;;;25.90;49.80;;;;;;5035671;28;20881;-83
2022/02/27 07:34:20;;;;;;;2.27;1.53;;;25.90;49.80;;;;;;5053022;28;20437;-83
2022/02/27 07:36:49;;;;;;;1.90;1.80;;;25.90;49.80;;;;;;5053280;28;20895;-84
2022/02/27 07:39:16;;;;;;;2.27;2.07;;;25.90;49.70;;;;;;5049935;28;20450;-84
2022/02/27 07:41:44;;;;;;;2.30;1.70;;;25.90;49.70;;;;;;5050120;28;20921;-82
2022/02/27 07:44:10;;;;;;;2.37;1.80;;;25.80;49.70;;;;;;5053337;28;20434;-81
2022/02/27 07:46:39;;;;;;;3.03;1.87;;;25.90;49.80;;;;;;5053130;28;20470;-84
2022/02/27 07:49:06;;;;;;;2.33;1.77;;;25.80;49.60;;;;;;5053167;28;20442;-87
2022/02/27 07:51:33;;;;;;;3.07;2.47;;;25.80;49.80;;;;;;5053060;28;20435;-88
2022/02/27 07:54:00;;;;;;;3.53;1.57;;;25.80;50.00;;;;;;5052891;28;20469;-82
2022/02/27 07:56:28;;;;;;;1.87;1.60;;;25.90;49.80;;;;;;5053166;28;20470;-82
2022/02/27 07:58:55;;;;;;;2.60;2.00;;;25.90;49.80;;;;;;5052969;28;20437;-82
2022/02/27 08:01:22;;;;;;;2.03;1.93;;;25.90;50.00;;;;;;5052950;28;20446;-85
2022/02/27 08:03:50;;;;;;;3.10;1.70;;;26.00;50.00;;;;;;5054272;28;20434;-82
2022/02/27 08:06:17;;;;;;;3.27;2.20;;;26.00;49.90;;;;;;5057000;28;20512;-81
2022/02/27 08:08:44;;;;;;;3.10;2.03;;;26.00;50.00;;;;;;5056736;28;20447;-88
2022/02/27 08:11:12;;;;;;;5.87;2.23;;;26.10;49.90;;;;;;5056302;28;20503;-81
2022/02/27 08:13:39;;;;;;;2.30;1.97;;;26.10;49.50;;;;;;5055804;28;20450;-82
2022/02/27 08:16:06;;;;;;;2.47;1.90;;;26.20;49.70;;;;;;5056605;28;20448;-84
2022/02/27 08:18:34;;;;;;;2.60;2.13;;;26.20;49.10;;;;;;5056884;28;20441;-86
2022/02/27 08:21:02;;;;;;;4.60;2.17;;;26.30;49.40;;;;;;5055656;28;20445;-83
2022/02/27 08:23:29;;;;;;;3.20;2.20;;;26.30;49.60;;;;;;5055360;28;20442;-84
2022/02/27 08:25:59;;;;;;;4.73;2.07;;;26.40;49.60;;;;;;5055425;28;20531;-84
2022/02/27 08:28:26;;;;;;;4.50;2.20;;;26.50;49.60;;;;;;5055540;28;20496;-84
2022/02/27 08:30:53;;;;;;;2.50;1.97;;;26.60;49.70;;;;;;5055707;28;20503;-83
2022/02/27 08:33:20;;;;;;;1.83;1.73;;;26.60;49.70;;;;;;5055969;28;20452;-83
2022/02/27 08:35:47;;;;;;;1.80;1.70;;;26.70;49.80;;;;;;5056168;28;20442;-87
2022/02/27 08:38:15;;;;;;;1.90;1.70;;;26.70;49.80;;;;;;5056439;28;20929;-88
2022/02/27 08:40:42;;;;;;;3.40;2.70;;;26.80;49.90;;;;;;5056418;28;20545;-83
2022/02/27 08:43:09;;;;;;;1.97;1.87;;;26.90;49.90;;;;;;5056397;28;20440;-83
2022/02/27 08:45:36;;;;;;;1.87;1.60;;;27.00;49.80;;;;;;5056423;28;20879;-83
2022/02/27 08:48:03;;;;;;;1.93;1.60;;;27.10;49.70;;;;;;5056065;28;20492;-82
2022/02/27 08:50:30;;;;;;;2.40;1.77;;;27.30;49.70;;;;;;5056381;28;20489;-82
2022/02/27 08:52:57;;;;;;;2.47;2.27;;;27.50;49.50;;;;;;5056048;28;20449;-83
2022/02/27 08:55:25;;;;;;;2.00;1.80;;;27.90;49.30;;;;;;5055634;28;20473;-82
2022/02/27 08:57:52;;;;;;;6.33;1.73;;;28.20;49.00;;;;;;5055925;28;20453;-88
2022/02/27 09:00:19;;;;;;;3.37;2.13;;;28.60;48.70;;;;;;5055970;28;20437;-82
2022/02/27 09:02:47;;;;;;;2.93;1.70;;;28.90;48.30;;;;;;5056047;28;20438;-87
2022/02/27 09:05:14;;;;;;;3.50;2.23;;;29.20;48.20;;;;;;5055792;28;20438;-82
2022/02/27 09:07:41;;;;;;;3.33;2.57;;;29.50;47.90;;;;;;5055771;28;20482;-86
2022/02/27 09:10:12;;;;;;;2.07;1.83;;;30.00;47.50;;;;;;5055910;28;20449;-83
2022/02/27 09:12:41;;;;;;;1.70;1.57;;;30.50;47.20;;;;;;5056121;28;20988;-87
2022/02/27 09:15:09;;;;;;;1.90;1.80;;;31.00;46.70;;;;;;5055589;28;20435;-82
2022/02/27 09:17:36;;;;;;;2.20;2.00;;;31.40;46.20;;;;;;5049372;28;20436;-82
2022/02/27 09:20:04;;;;;;;3.50;1.70;;;31.90;45.70;;;;;;5040537;28;20437;-82
2022/02/27 09:22:31;;;;;;;2.40;1.80;;;32.40;45.30;;;;;;5051132;28;20525;-89
2022/02/27 09:24:58;;;;;;;1.93;1.73;;;32.80;45.00;;;;;;5055617;28;20453;-83
2022/02/27 09:27:25;;;;;;;1.63;1.53;;;33.10;44.50;;;;;;5055377;28;20496;-84
2022/02/27 09:29:53;;;;;;;5.00;1.83;;;33.40;44.50;;;;;;5055496;28;20448;-85
2022/02/27 09:32:20;;;;;;;1.70;1.60;;;33.70;42.50;;;;;;5055244;28;20448;-88
2022/02/27 09:34:47;;;;;;;2.90;1.67;;;33.90;41.90;;;;;;5055190;28;20529;-87
2022/02/27 09:37:16;;;;;;;1.70;1.47;;;34.00;42.70;;;;;;5048016;28;20431;-87
2022/02/27 09:39:43;;;;;;;3.00;1.60;;;33.70;43.40;;;;;;5037625;28;20435;-84
2022/02/27 09:42:09;;;;;;;1.80;1.70;;;33.10;44.00;;;;;;5035547;28;20474;-84
2022/02/27 09:44:40;;;;;;;2.00;1.40;;;32.60;43.70;;;;;;5037423;28;20435;-88
2022/02/27 09:47:12;;;;;;;3.23;1.80;;;32.50;44.70;;;;;;5035107;28;20684;-90
2022/02/27 09:49:42;;;;;;;1.67;1.50;;;32.60;44.90;;;;;;5035178;28;20435;-83
2022/02/27 09:52:10;;;;;;;2.60;2.10;;;32.90;44.70;;;;;;5034982;28;20538;-89
2022/02/27 09:54:38;;;;;;;1.67;1.53;;;33.50;44.30;;;;;;5035033;28;20524;-84
2022/02/27 09:57:04;;;;;;;2.10;1.90;;;34.00;43.80;;;;;;5034866;28;20474;-86
2022/02/27 09:59:31;;;;;;;4.43;2.20;;;34.50;43.40;;;;;;5034739;28;20549;-83
2022/02/27 10:01:59;;;;;;;2.60;1.60;;;34.90;43.00;;;;;;5034388;28;20446;-85
2022/02/27 10:04:33;;;;;;;2.53;1.40;;;35.30;42.70;;;;;;5034064;28;20439;-84
2022/02/27 10:07:00;;;;;;;2.93;1.70;;;35.60;42.50;;;;;;5033926;28;20504;-84
2022/02/27 10:09:27;;;;;;;3.60;1.67;;;35.80;42.30;;;;;;5034097;28;20442;-84
2022/02/27 10:11:54;;;;;;;3.40;1.40;;;36.00;42.00;;;;;;5034068;28;20462;-92
2022/02/27 10:14:26;;;;;;;2.27;1.70;;;36.20;42.00;;;;;;5033998;28;20953;-91
2022/02/27 10:17:03;;;;;;;2.23;1.40;;;36.20;41.90;;;;;;5034254;28;20445;-92
2022/02/27 10:19:35;;;;;;;1.90;1.70;;;36.00;42.00;;;;;;5034891;28;20453;-91
2022/02/27 10:22:01;;;;;;;3.20;1.60;;;35.60;42.20;;;;;;5034956;28;20788;-92
2022/02/27 10:24:28;;;;;;;3.07;1.53;;;35.10;42.50;;;;;;5034702;28;20446;-84
2022/02/27 10:26:55;;;;;;;2.00;1.80;;;34.60;43.00;;;;;;5033939;28;20459;-85
2022/02/27 10:29:23;;;;;;;2.57;1.80;;;34.00;43.60;;;;;;5034408;28;20956;-91
2022/02/27 10:31:52;;;;;;;2.53;1.60;;;33.40;44.10;;;;;;5034734;28;20444;-91
2022/02/27 10:34:21;;;;;;;1.70;1.40;;;32.80;44.60;;;;;;5034330;28;20438;-84
2022/02/27 10:37:04;;;;;;;3.20;1.40;;;32.30;45.20;;;;;;5034658;28;20444;-84
2022/02/27 10:39:34;;;;;;;1.70;1.47;;;32.00;45.70;;;;;;5034866;28;20426;-84
2022/02/27 10:42:12;;;;;;;2.03;1.83;;;31.60;46.10;;;;;;5035017;28;20431;-91
2022/02/27 10:44:41;;;;;;;1.67;1.30;;;31.30;46.40;;;;;;5043814;28;20430;-85
2022/02/27 10:47:16;;;;;;;1.60;1.50;;;31.10;46.70;;;;;;5051986;28;20449;-86
2022/02/27 10:49:44;;;;;;;1.73;1.60;;;30.90;47.00;;;;;;5051303;28;20440;-85
2022/02/27 10:52:20;;;;;;;1.70;1.30;;;30.80;47.20;;;;;;5041806;28;20445;-91
2022/02/27 10:54:49;;;;;;;3.33;1.40;;;30.60;47.50;;;;;;5034818;28;20474;-89
2022/02/27 10:57:31;;;;;;;1.60;1.50;;;30.50;47.70;;;;;;5034063;28;20482;-84
2022/02/27 11:00:05;;;;;;;3.43;1.40;;;30.40;47.90;;;;;;5034310;28;20458;-90
2022/02/27 11:02:34;;;;;;;3.00;1.50;;;30.20;48.00;;;;;;5034938;28;20488;-89
2022/02/27 11:05:02;;;;;;;2.20;1.67;;;30.10;48.10;;;;;;5034429;28;20479;-90
2022/02/27 11:07:31;;;;;;;2.37;1.63;;;30.10;48.30;;;;;;5034284;28;20482;-91
2022/02/27 11:09:57;;;;;;;1.40;1.23;;;30.00;48.40;;;;;;5033955;28;20438;-90
2022/02/27 11:12:25;;;;;;;1.60;1.50;;;30.00;48.50;;;;;;5034253;28;20812;-91
2022/02/27 11:14:53;;;;;;;1.30;1.20;;;29.90;48.60;;;;;;5033710;28;20454;-89
2022/02/27 11:17:20;;;;;;;1.87;1.67;;;29.90;48.70;;;;;;5033953;28;20450;-89
2022/02/27 11:19:47;;;;;;;2.03;1.63;;;29.90;48.80;;;;;;5034998;28;20469;-90
2022/02/27 11:22:15;;;;;;;1.60;1.50;;;29.80;48.90;;;;;;5033573;28;20447;-91
2022/02/27 11:24:44;;;;;;;1.90;1.23;;;29.80;49.00;;;;;;5033766;28;20442;-90
2022/02/27 11:27:14;;;;;;;1.53;1.20;;;29.70;49.00;;;;;;5033561;28;20820;-83
2022/02/27 11:29:46;;;;;;;1.57;1.20;;;29.70;49.10;;;;;;5033939;28;20439;-82
2022/02/27 11:32:13;;;;;;;1.37;1.27;;;29.70;49.30;;;;;;5034684;28;20768;-82
2022/02/27 11:34:41;;;;;;;1.50;1.17;;;29.70;49.30;;;;;;5033506;28;20446;-87
2022/02/27 11:37:08;;;;;;;1.57;1.23;;;29.60;49.30;;;;;;5033197;28;20435;-82
2022/02/27 11:42:49;;;;;;;1.30;1.20;;;29.60;49.50;;;;;;5033769;28;20422;-88
2022/02/27 11:45:20;;;;;;;1.67;1.10;;;29.60;49.50;;;;;;5033596;28;20862;-89
2022/02/27 11:47:53;;;;;;;1.33;1.10;;;29.50;49.60;;;;;;5033268;28;20474;-89
2022/02/27 11:50:27;;;;;;;1.77;1.60;;;29.60;49.60;;;;;;5034001;28;20454;-88
2022/02/27 11:52:54;;;;;;;1.40;1.30;;;29.50;49.60;;;;;;5033609;28;20481;-88
2022/02/27 11:55:41;;;;;;;1.33;1.17;;;29.50;49.70;;;;;;5033319;28;20466;-82
2022/02/27 11:58:19;;;;;;;1.30;1.00;;;29.50;49.70;;;;;;5033874;28;20435;-83
2022/02/27 12:00:46;;;;;;;1.80;1.30;;;29.50;49.80;;;;;;5033461;28;20806;-86
2022/02/27 12:03:36;;;;;;;1.37;1.20;;;29.50;49.90;;;;;;5033226;28;20438;-82
2022/02/27 12:06:04;;;;;;;1.77;1.40;;;29.50;49.90;;;;;;5033264;28;20439;-87
2022/02/27 12:08:41;;;;;;;1.50;1.30;;;29.50;50.00;;;;;;5033193;28;20482;-87
2022/02/27 12:11:38;;;;;;;1.50;1.10;;;29.50;50.00;;;;;;5033241;28;20434;-83
2022/02/27 12:14:07;;;;;;;1.27;1.17;;;29.40;50.00;;;;;;5033104;28;20497;-90
2022/02/27 12:16:35;;;;;;;1.40;1.30;;;29.40;50.10;;;;;;5033337;28;20445;-89
2022/02/27 12:19:03;;;;;;;1.47;1.30;;;29.40;50.10;;;;;;5033052;28;20442;-90
2022/02/27 12:21:38;;;;;;;1.23;1.10;;;29.50;50.20;;;;;;5033304;28;20438;-90
2022/02/27 12:24:15;;;;;;;1.50;1.20;;;29.40;50.20;;;;;;5033298;28;20438;-90
2022/02/27 12:26:51;;;;;;;1.43;1.33;;;29.40;50.20;;;;;;5033199;28;20826;-90
2022/02/27 12:29:36;;;;;;;2.37;1.30;;;29.40;50.30;;;;;;5033304;28;20489;-90
2022/02/27 12:32:10;;;;;;;1.30;1.10;;;29.40;50.30;;;;;;5032844;28;20443;-90
2022/02/27 12:34:38;;;;;;;2.10;1.07;;;29.30;50.20;;;;;;5033503;28;20439;-90
2022/02/27 12:37:06;;;;;;;1.23;1.13;;;29.40;50.30;;;;;;5033007;28;20802;-82
2022/02/27 12:39:36;;;;;;;1.30;1.20;;;29.40;50.40;;;;;;5033018;28;20807;-90
2022/02/27 12:42:04;;;;;;;1.70;1.30;;;29.40;50.40;;;;;;5032821;28;20479;-90
2022/02/27 12:44:35;;;;;;;3.40;1.10;;;29.40;50.40;;;;;;5032745;28;20438;-88
2022/02/27 12:47:04;;;;;;;1.30;1.20;;;29.40;50.40;;;;;;5032954;28;20469;-90
2022/02/27 12:52:21;;;;;;;1.30;1.20;;;29.40;50.50;;;;;;5040233;28;20917;-87
2022/02/27 12:54:50;;;;;;;1.50;1.20;;;29.40;50.50;;;;;;5039612;28;20470;-88
2022/02/27 12:57:17;;;;;;;1.40;1.07;;;29.40;50.60;;;;;;5036644;28;20461;-89